Time;durP1;ratioP1;P1;durP2;ratioP2;P2;SDS_P1;SDS_P2;PMS_P1;PMS_P2;Temp;Humidity;BMP_temperature;BMP_pressure;BME280_temperature;BME280_humidity;BME280_pressure;Samples;Min_cycle;Max_cycle;Signal;HPM_P1;HPM_P2
2023/02/19 00:01:39;;;;;;;8.65;5.47;;;11.60;99.90;;;;;;5078293;28;20178;-78
2023/02/19 00:04:16;;;;;;;7.40;5.45;;;11.60;99.90;;;;;;5075870;28;20244;-79
2023/02/19 00:06:43;;;;;;;6.43;5.80;;;11.60;99.90;;;;;;5074333;28;20174;-79
2023/02/19 00:09:12;;;;;;;9.25;6.85;;;11.60;99.90;;;;;;5075228;28;20197;-79
2023/02/19 00:11:37;;;;;;;7.65;6.43;;;11.60;99.90;;;;;;5075231;28;20232;-79
2023/02/19 00:14:04;;;;;;;7.20;5.55;;;11.60;99.90;;;;;;5073695;28;20571;-78
2023/02/19 00:16:35;;;;;;;8.48;6.07;;;11.60;99.90;;;;;;5073834;28;20167;-79
2023/02/19 00:19:02;;;;;;;8.05;6.70;;;11.70;99.90;;;;;;5073612;28;20232;-78
2023/02/19 00:21:28;;;;;;;10.45;5.78;;;11.80;99.90;;;;;;5073329;28;20165;-78
2023/02/19 00:23:56;;;;;;;14.85;6.43;;;11.70;99.90;;;;;;5073043;28;20202;-78
2023/02/19 00:26:22;;;;;;;9.90;6.72;;;11.80;99.90;;;;;;5074334;28;20166;-78
2023/02/19 00:28:50;;;;;;;8.55;6.85;;;11.80;99.90;;;;;;5074562;28;20163;-79
2023/02/19 00:31:35;;;;;;;8.77;6.20;;;11.70;99.90;;;;;;5073312;28;20286;-78
2023/02/19 00:34:03;;;;;;;7.00;5.70;;;11.70;99.90;;;;;;5073379;28;20554;-78
2023/02/19 00:36:29;;;;;;;11.75;6.82;;;11.70;99.90;;;;;;5074672;28;20194;-78
2023/02/19 00:38:55;;;;;;;8.35;6.35;;;11.90;99.90;;;;;;5074291;28;20162;-79
2023/02/19 00:44:21;;;;;;;13.00;6.03;;;11.90;99.90;;;;;;5072623;28;20225;-78
2023/02/19 00:46:47;;;;;;;6.70;5.28;;;11.90;99.90;;;;;;5074055;28;20175;-77
2023/02/19 00:49:20;;;;;;;10.35;6.57;;;11.90;99.90;;;;;;5056149;28;20178;-79
2023/02/19 00:51:46;;;;;;;8.70;5.78;;;11.90;99.90;;;;;;5073017;28;20170;-79
2023/02/19 00:54:12;;;;;;;13.85;6.10;;;11.80;99.90;;;;;;5073679;28;20265;-79
2023/02/19 00:56:37;;;;;;;8.77;5.90;;;11.90;99.90;;;;;;5073770;28;20245;-80
2023/02/19 00:59:03;;;;;;;6.90;5.53;;;11.80;99.90;;;;;;5056114;28;20530;-79
2023/02/19 01:01:29;;;;;;;6.50;4.55;;;11.80;99.90;;;;;;5055801;28;20651;-79
2023/02/19 01:03:55;;;;;;;14.38;5.13;;;11.80;99.90;;;;;;5073291;28;20218;-78
2023/02/19 01:06:21;;;;;;;8.38;4.80;;;11.70;99.90;;;;;;5073683;28;20166;-78
2023/02/19 01:08:47;;;;;;;6.53;5.28;;;11.70;99.90;;;;;;5073379;28;20220;-79
2023/02/19 01:11:13;;;;;;;11.55;4.80;;;11.70;99.90;;;;;;5056015;28;20170;-79
2023/02/19 01:13:39;;;;;;;6.78;4.57;;;11.70;99.90;;;;;;5073433;28;20197;-79
2023/02/19 01:16:15;;;;;;;7.68;4.78;;;11.60;99.90;;;;;;5073600;28;20216;-79
2023/02/19 01:18:42;;;;;;;8.98;4.40;;;11.60;99.90;;;;;;5073190;28;20166;-79
2023/02/19 01:21:11;;;;;;;7.97;4.50;;;11.50;99.90;;;;;;5073378;28;20171;-79
2023/02/19 01:23:37;;;;;;;9.75;4.32;;;11.50;99.90;;;;;;5055063;28;20190;-80
2023/02/19 01:26:05;;;;;;;13.35;5.93;;;11.50;99.90;;;;;;5055312;28;20665;-79
2023/02/19 01:28:30;;;;;;;9.70;4.50;;;11.60;99.90;;;;;;5073273;28;20163;-79
2023/02/19 01:31:01;;;;;;;14.85;5.30;;;11.50;99.90;;;;;;5055183;28;20185;-80
2023/02/19 01:33:26;;;;;;;10.27;4.38;;;11.50;99.90;;;;;;5072920;28;20194;-79
2023/02/19 01:35:52;;;;;;;10.38;3.97;;;11.60;99.90;;;;;;5072743;28;20162;-79
2023/02/19 01:38:18;;;;;;;8.90;4.70;;;11.60;99.90;;;;;;5072736;28;20170;-79
2023/02/19 01:40:43;;;;;;;11.85;4.03;;;11.70;99.90;;;;;;5054702;28;20178;-79
2023/02/19 01:43:14;;;;;;;12.15;3.85;;;11.70;99.90;;;;;;5054774;28;20198;-82
2023/02/19 01:45:44;;;;;;;7.53;3.85;;;11.60;99.90;;;;;;5072738;28;20239;-79
2023/02/19 01:48:38;;;;;;;7.78;4.00;;;11.60;99.90;;;;;;5072984;28;20297;-79
2023/02/19 01:51:14;;;;;;;19.98;3.88;;;11.60;99.90;;;;;;5052270;28;20194;-78
2023/02/19 01:53:44;;;;;;;10.07;3.10;;;11.70;99.90;;;;;;5072333;28;20655;-79
2023/02/19 01:56:12;;;;;;;12.65;2.85;;;11.60;99.90;;;;;;5072828;28;20182;-79
2023/02/19 01:58:38;;;;;;;11.13;3.20;;;11.60;99.90;;;;;;5072423;28;20207;-80
2023/02/19 02:01:07;;;;;;;6.43;2.95;;;11.60;99.90;;;;;;5072523;28;20163;-79
2023/02/19 02:03:35;;;;;;;8.38;2.60;;;11.50;99.90;;;;;;5072076;28;20193;-79
2023/02/19 02:06:10;;;;;;;4.85;2.95;;;11.50;99.90;;;;;;5072805;28;20654;-79
2023/02/19 02:11:20;;;;;;;5.90;2.60;;;11.50;99.90;;;;;;5072415;28;20181;-79
2023/02/19 02:13:47;;;;;;;5.57;2.53;;;11.50;99.90;;;;;;5054424;28;20182;-79
2023/02/19 02:16:16;;;;;;;6.80;2.00;;;11.50;99.90;;;;;;5072745;28;20171;-79
2023/02/19 02:18:45;;;;;;;6.90;2.88;;;11.40;99.90;;;;;;5073155;28;20162;-79
2023/02/19 02:21:37;;;;;;;8.93;3.20;;;11.40;99.90;;;;;;5072267;28;20170;-79
2023/02/19 02:24:27;;;;;;;8.88;2.33;;;11.50;99.90;;;;;;5072166;28;20213;-80
2023/02/19 02:27:11;;;;;;;6.00;2.30;;;11.50;99.90;;;;;;5054473;28;20623;-80
2023/02/19 02:30:14;;;;;;;12.38;3.33;;;11.40;99.90;;;;;;5054383;28;20659;-79
2023/02/19 02:32:59;;;;;;;7.28;2.95;;;11.40;99.90;;;;;;5072389;28;20201;-80
2023/02/19 02:35:31;;;;;;;11.82;2.45;;;11.40;99.90;;;;;;5072492;28;20178;-79
2023/02/19 02:38:03;;;;;;;7.68;1.95;;;11.50;99.90;;;;;;5072300;28;20257;-80
2023/02/19 02:40:30;;;;;;;7.65;2.20;;;11.60;99.90;;;;;;5054436;28;20261;-79
2023/02/19 02:42:59;;;;;;;8.15;2.20;;;11.60;99.90;;;;;;5072012;28;20216;-79
2023/02/19 02:45:36;;;;;;;5.85;1.92;;;11.50;99.90;;;;;;5072106;28;20201;-79
2023/02/19 02:48:25;;;;;;;5.03;1.83;;;11.50;99.90;;;;;;5072018;28;20162;-79
2023/02/19 02:51:06;;;;;;;6.95;1.77;;;11.50;99.90;;;;;;5063525;28;20638;-79
2023/02/19 02:56:29;;;;;;;7.72;2.20;;;11.50;99.90;;;;;;5072421;28;20205;-80
2023/02/19 02:58:57;;;;;;;12.27;2.08;;;11.50;99.90;;;;;;5071783;28;20170;-79
2023/02/19 03:07:40;;;;;;;6.93;2.42;;;11.50;99.90;;;;;;5071957;28;20177;-79
2023/02/19 03:10:09;;;;;;;5.15;1.98;;;11.50;99.90;;;;;;5071880;28;20162;-79
2023/02/19 03:20:57;;;;;;;8.18;2.28;;;11.60;99.90;;;;;;5076067;28;20240;-79
2023/02/19 03:26:02;;;;;;;7.63;1.77;;;11.50;99.90;;;;;;5075516;28;20190;-79
2023/02/19 03:26:15;;;;;;;8.70;2.13;;;11.60;99.90;;;;;;5075584;28;20239;-79
2023/02/19 03:31:30;;;;;;;15.40;1.88;;;11.60;99.90;;;;;;5075276;28;20236;-79
2023/02/19 03:33:59;;;;;;;14.73;2.33;;;11.60;99.90;;;;;;5075334;28;20240;-79
2023/02/19 03:36:34;;;;;;;9.68;2.38;;;11.50;99.90;;;;;;5075562;28;20170;-79
2023/02/19 03:39:01;;;;;;;8.73;1.90;;;11.40;99.90;;;;;;5075436;28;20201;-79
2023/02/19 03:41:47;;;;;;;7.10;2.17;;;11.40;99.90;;;;;;5075463;28;20162;-79
2023/02/19 03:44:23;;;;;;;7.80;1.88;;;11.40;99.90;;;;;;5075402;28;20206;-79
2023/02/19 03:47:02;;;;;;;15.07;1.75;;;11.30;99.90;;;;;;5075265;28;20611;-79
2023/02/19 03:49:38;;;;;;;14.18;1.77;;;11.40;99.90;;;;;;5075108;28;20178;-79
2023/02/19 03:52:22;;;;;;;12.30;1.90;;;11.30;99.90;;;;;;5056855;28;20212;-79
2023/02/19 03:55:13;;;;;;;13.65;2.45;;;11.30;99.90;;;;;;5074938;28;20170;-79
2023/02/19 03:57:44;;;;;;;9.18;1.70;;;11.30;99.90;;;;;;5057191;28;20234;-78
2023/02/19 04:00:32;;;;;;;7.82;1.80;;;11.40;99.90;;;;;;5075091;28;20162;-80
2023/02/19 04:03:17;;;;;;;12.57;1.55;;;11.20;99.90;;;;;;5075035;28;20218;-79
2023/02/19 04:05:51;;;;;;;9.52;2.40;;;11.30;99.90;;;;;;5074915;28;20198;-80
2023/02/19 04:08:20;;;;;;;6.05;1.75;;;11.40;99.90;;;;;;5056977;28;20167;-79
2023/02/19 04:10:46;;;;;;;10.68;1.73;;;11.30;99.90;;;;;;5075040;28;20162;-78
2023/02/19 04:13:20;;;;;;;10.82;2.25;;;11.30;99.90;;;;;;5074929;28;20232;-79
2023/02/19 04:15:47;;;;;;;3.83;1.88;;;11.30;99.90;;;;;;5057254;28;20162;-79
2023/02/19 04:18:20;;;;;;;13.95;2.13;;;11.30;99.90;;;;;;5075248;28;20170;-78
2023/02/19 04:20:47;;;;;;;5.07;1.52;;;11.20;99.90;;;;;;5057037;28;20181;-78
2023/02/19 04:23:15;;;;;;;7.38;1.67;;;11.20;99.90;;;;;;5075721;28;20528;-79
2023/02/19 04:25:47;;;;;;;8.27;1.80;;;11.30;99.90;;;;;;5074915;28;20226;-79
2023/02/19 04:28:15;;;;;;;16.13;2.25;;;11.40;99.90;;;;;;5075266;28;20254;-80
2023/02/19 04:30:42;;;;;;;11.80;2.13;;;11.50;99.90;;;;;;5075107;28;20167;-78
2023/02/19 04:33:07;;;;;;;11.40;1.90;;;11.50;99.90;;;;;;5074734;28;20185;-79
2023/02/19 04:35:33;;;;;;;6.60;1.58;;;11.60;99.90;;;;;;5074608;28;20163;-79
2023/02/19 04:37:59;;;;;;;18.85;2.42;;;11.50;99.90;;;;;;5074140;28;20257;-79
2023/02/19 04:40:24;;;;;;;8.48;1.67;;;11.50;99.90;;;;;;5074043;28;20173;-79
2023/02/19 04:42:50;;;;;;;6.38;2.10;;;11.40;99.90;;;;;;5074164;28;20578;-79
2023/02/19 04:45:15;;;;;;;17.38;2.60;;;11.40;99.90;;;;;;5074095;28;20210;-79
2023/02/19 04:47:41;;;;;;;8.82;2.15;;;11.40;99.90;;;;;;5074174;28;20173;-78
2023/02/19 04:50:07;;;;;;;14.80;2.80;;;11.30;99.90;;;;;;5073907;28;20171;-79
2023/02/19 04:52:32;;;;;;;5.20;1.95;;;11.30;99.90;;;;;;5073851;28;20175;-79
2023/02/19 04:54:58;;;;;;;10.93;1.60;;;11.30;99.90;;;;;;5073898;28;20178;-79
2023/02/19 04:57:24;;;;;;;9.02;1.40;;;11.30;99.90;;;;;;5073856;28;20249;-79
2023/02/19 04:59:49;;;;;;;12.45;2.03;;;11.30;99.90;;;;;;5055681;28;20170;-80
2023/02/19 05:02:15;;;;;;;10.30;2.30;;;11.30;99.90;;;;;;5073610;28;20659;-80
2023/02/19 05:04:40;;;;;;;16.15;3.10;;;11.30;99.90;;;;;;5073606;28;20213;-79
2023/02/19 05:07:06;;;;;;;6.30;1.75;;;11.30;99.90;;;;;;5073552;28;20167;-80
2023/02/19 05:09:32;;;;;;;9.52;1.90;;;11.30;99.90;;;;;;5073570;28;20194;-79
2023/02/19 05:11:57;;;;;;;16.50;2.30;;;11.20;99.90;;;;;;5073486;28;20182;-79
2023/02/19 05:14:23;;;;;;;23.75;2.33;;;11.20;99.90;;;;;;5073753;28;20615;-79
2023/02/19 05:16:48;;;;;;;7.22;1.60;;;11.10;99.90;;;;;;5073704;28;20167;-79
2023/02/19 05:19:14;;;;;;;10.30;1.52;;;11.20;99.90;;;;;;5074155;28;20325;-80
2023/02/19 05:21:40;;;;;;;17.10;2.58;;;11.20;99.90;;;;;;5073596;28;20252;-80
2023/02/19 05:24:07;;;;;;;8.70;2.08;;;11.30;99.90;;;;;;5073216;28;20194;-80
2023/02/19 05:26:33;;;;;;;13.43;2.20;;;11.10;99.90;;;;;;5055439;28;20537;-80
2023/02/19 05:28:59;;;;;;;13.27;1.45;;;11.10;99.90;;;;;;5073015;28;20171;-79
2023/02/19 05:31:25;;;;;;;16.98;2.08;;;11.10;99.90;;;;;;5072816;28;20586;-79
2023/02/19 05:33:51;;;;;;;13.25;2.30;;;11.20;99.90;;;;;;5073095;28;20261;-79
2023/02/19 05:36:19;;;;;;;13.75;2.33;;;11.10;99.90;;;;;;5055108;28;20383;-80
2023/02/19 05:38:46;;;;;;;18.05;2.30;;;11.10;99.90;;;;;;5072351;28;20651;-79
2023/02/19 05:41:17;;;;;;;12.00;2.47;;;11.10;99.90;;;;;;5055104;28;20174;-80
2023/02/19 05:43:45;;;;;;;8.80;2.90;;;11.10;99.90;;;;;;5054885;28;20260;-79
2023/02/19 05:46:13;;;;;;;9.95;2.10;;;11.10;99.90;;;;;;5073435;28;20174;-80
2023/02/19 05:48:39;;;;;;;21.08;2.95;;;11.10;99.90;;;;;;5072614;28;20178;-80
2023/02/19 05:51:07;;;;;;;15.57;2.78;;;11.20;99.90;;;;;;5055001;28;20170;-79
2023/02/19 05:53:34;;;;;;;10.27;2.28;;;11.20;99.90;;;;;;5072665;28;20183;-79
2023/02/19 05:56:00;;;;;;;7.28;1.90;;;11.20;99.90;;;;;;5072525;28;20166;-81
2023/02/19 05:58:27;;;;;;;12.85;2.90;;;11.20;99.90;;;;;;5054768;28;20181;-79
2023/02/19 06:00:52;;;;;;;7.28;1.98;;;11.20;99.90;;;;;;5072575;28;20165;-80
2023/02/19 06:03:18;;;;;;;8.93;2.28;;;11.20;99.90;;;;;;5072698;28;20198;-80
2023/02/19 06:05:44;;;;;;;23.75;1.98;;;11.20;99.90;;;;;;5072627;28;20212;-80
2023/02/19 06:08:12;;;;;;;10.07;1.70;;;11.20;99.90;;;;;;5072584;28;20201;-79
2023/02/19 06:10:40;;;;;;;7.22;1.80;;;11.10;99.90;;;;;;5054511;28;20178;-79
2023/02/19 06:13:06;;;;;;;8.50;1.73;;;11.10;99.90;;;;;;5054732;28;20547;-79
2023/02/19 06:15:32;;;;;;;10.93;2.30;;;11.00;99.90;;;;;;5072590;28;20194;-79
2023/02/19 06:17:57;;;;;;;14.40;2.63;;;11.10;99.90;;;;;;5072883;28;20181;-79
2023/02/19 06:20:23;;;;;;;6.53;1.52;;;11.10;99.90;;;;;;5072491;28;20171;-80
2023/02/19 06:22:50;;;;;;;7.05;1.70;;;11.20;99.90;;;;;;5054536;28;20190;-79
2023/02/19 06:25:17;;;;;;;13.00;2.28;;;11.20;99.90;;;;;;5072154;28;20194;-80
2023/02/19 06:27:42;;;;;;;7.60;1.48;;;11.10;99.90;;;;;;5072297;28;20166;-79
2023/02/19 06:30:09;;;;;;;13.40;2.20;;;11.20;99.90;;;;;;5072278;28;20177;-79
2023/02/19 06:32:34;;;;;;;9.60;2.22;;;11.10;99.90;;;;;;5072265;28;20182;-79
2023/02/19 06:35:00;;;;;;;11.32;2.03;;;11.20;99.90;;;;;;5072607;28;20188;-80
2023/02/19 06:37:26;;;;;;;7.45;1.70;;;11.30;99.90;;;;;;5072072;28;20163;-79
2023/02/19 06:39:52;;;;;;;17.73;2.65;;;11.10;99.90;;;;;;5072277;28;20171;-79
2023/02/19 06:42:17;;;;;;;11.73;2.20;;;11.10;99.90;;;;;;5072820;28;20182;-79
2023/02/19 06:44:43;;;;;;;11.55;2.35;;;11.10;99.90;;;;;;5054160;28;20296;-79
2023/02/19 06:47:08;;;;;;;9.05;2.05;;;11.00;99.90;;;;;;5053989;28;20170;-79
2023/02/19 06:49:34;;;;;;;9.13;2.40;;;11.10;99.90;;;;;;5055729;28;20264;-80
2023/02/19 06:52:00;;;;;;;9.05;2.40;;;11.20;99.90;;;;;;5076349;28;20629;-80
2023/02/19 06:54:26;;;;;;;13.93;2.45;;;11.20;99.90;;;;;;5058227;28;20174;-79
2023/02/19 06:56:52;;;;;;;12.32;3.60;;;11.10;99.90;;;;;;5058106;28;20217;-80
2023/02/19 06:59:17;;;;;;;8.50;2.30;;;11.10;99.90;;;;;;5076000;28;20576;-79
2023/02/19 07:01:44;;;;;;;8.00;1.70;;;11.20;99.90;;;;;;5075960;28;20167;-79
2023/02/19 07:04:10;;;;;;;9.50;3.38;;;11.40;99.90;;;;;;5058262;28;20214;-83
2023/02/19 07:06:36;;;;;;;14.27;1.90;;;11.30;99.90;;;;;;5058247;28;20232;-79
2023/02/19 07:09:03;;;;;;;10.43;2.13;;;11.30;99.90;;;;;;5057887;28;20209;-79
2023/02/19 07:11:31;;;;;;;9.60;2.60;;;11.20;99.90;;;;;;5075779;28;20215;-79
2023/02/19 07:13:58;;;;;;;7.88;1.98;;;11.20;99.90;;;;;;5057902;28;20190;-79
2023/02/19 07:16:25;;;;;;;3.75;1.38;;;11.10;99.90;;;;;;5075977;28;20257;-79
2023/02/19 07:18:51;;;;;;;14.50;3.47;;;11.20;99.90;;;;;;5057933;28;20166;-78
2023/02/19 07:21:18;;;;;;;7.82;1.73;;;11.10;99.90;;;;;;5057643;28;20631;-80
2023/02/19 07:23:44;;;;;;;11.48;2.17;;;11.30;99.90;;;;;;5075410;28;20182;-81
2023/02/19 07:26:15;;;;;;;10.60;2.22;;;11.30;99.90;;;;;;5075710;28;20257;-79
2023/02/19 07:28:42;;;;;;;10.68;2.22;;;11.40;99.90;;;;;;5075999;28;20193;-78
2023/02/19 07:31:07;;;;;;;7.15;2.03;;;11.30;99.90;;;;;;5075587;28;20167;-79
2023/02/19 07:33:33;;;;;;;13.82;2.03;;;11.30;99.90;;;;;;5075515;28;20681;-79
2023/02/19 07:35:59;;;;;;;7.20;1.90;;;11.30;99.90;;;;;;5057669;28;20663;-79
2023/02/19 07:38:25;;;;;;;8.25;1.98;;;11.30;99.90;;;;;;5075192;28;20674;-79
2023/02/19 07:40:52;;;;;;;7.75;1.88;;;11.20;99.90;;;;;;5075460;28;20170;-80
2023/02/19 07:43:18;;;;;;;12.18;1.75;;;11.30;99.90;;;;;;5075050;28;20198;-78
2023/02/19 07:45:44;;;;;;;5.43;2.00;;;11.40;99.90;;;;;;5074793;28;20210;-79
2023/02/19 07:48:10;;;;;;;5.78;1.83;;;11.40;99.90;;;;;;5074653;28;20621;-79
2023/02/19 07:50:36;;;;;;;9.32;2.80;;;11.50;99.90;;;;;;5056988;28;20204;-79
2023/02/19 07:53:01;;;;;;;8.75;2.28;;;11.40;99.90;;;;;;5074525;28;20178;-78
2023/02/19 07:55:27;;;;;;;8.18;1.98;;;11.50;99.90;;;;;;5075158;28;20170;-79
2023/02/19 07:57:52;;;;;;;12.27;2.42;;;11.60;99.90;;;;;;5075069;28;20192;-78
2023/02/19 08:00:18;;;;;;;7.05;1.90;;;11.60;99.90;;;;;;5074973;28;20280;-79
2023/02/19 08:03:00;;;;;;;10.43;2.65;;;11.60;99.90;;;;;;5074186;28;20194;-79
2023/02/19 08:05:27;;;;;;;8.70;1.75;;;11.50;99.90;;;;;;5056772;28;20202;-79
2023/02/19 08:07:53;;;;;;;12.23;2.22;;;11.50;99.90;;;;;;5074750;28;20159;-79
2023/02/19 08:13:18;;;;;;;9.23;2.65;;;11.40;99.90;;;;;;5074549;28;20188;-78
2023/02/19 08:16:09;;;;;;;6.60;1.88;;;11.40;99.90;;;;;;5074648;28;20208;-80
2023/02/19 08:18:35;;;;;;;3.63;1.42;;;11.40;99.90;;;;;;5062848;28;20194;-79
2023/02/19 08:21:00;;;;;;;8.73;1.50;;;11.30;99.90;;;;;;5074609;28;20173;-80
2023/02/19 08:23:26;;;;;;;9.98;1.73;;;11.30;99.90;;;;;;5074274;28;20193;-80
2023/02/19 08:25:57;;;;;;;8.07;1.85;;;11.40;99.90;;;;;;5074498;28;20210;-79
2023/02/19 08:28:23;;;;;;;10.52;3.03;;;11.40;99.90;;;;;;5074357;28;20701;-79
2023/02/19 08:30:48;;;;;;;6.13;2.65;;;11.40;99.90;;;;;;5056199;28;20257;-79
2023/02/19 08:33:20;;;;;;;5.93;1.88;;;11.30;99.90;;;;;;5074314;28;20183;-79
2023/02/19 08:35:46;;;;;;;5.78;1.65;;;11.40;99.90;;;;;;5073988;28;20518;-79
2023/02/19 08:38:15;;;;;;;8.70;1.77;;;11.40;99.90;;;;;;5074306;28;20630;-80
2023/02/19 08:40:41;;;;;;;8.48;1.77;;;11.30;99.90;;;;;;5074094;28;20170;-79
2023/02/19 08:43:09;;;;;;;9.88;2.00;;;11.30;99.90;;;;;;5056084;28;20198;-79
2023/02/19 08:45:40;;;;;;;14.35;1.85;;;11.30;99.90;;;;;;5073889;28;20202;-79
2023/02/19 08:48:06;;;;;;;9.15;1.90;;;11.30;99.90;;;;;;5073765;28;20166;-80
2023/02/19 08:50:33;;;;;;;11.88;5.70;;;11.40;99.90;;;;;;5056236;28;20178;-78
2023/02/19 08:52:59;;;;;;;13.82;2.45;;;11.40;99.90;;;;;;5072966;28;20187;-79
2023/02/19 08:55:25;;;;;;;12.50;4.57;;;11.40;99.90;;;;;;5054575;28;20163;-78
2023/02/19 08:57:50;;;;;;;6.22;2.15;;;11.50;99.90;;;;;;5072597;28;20165;-79
2023/02/19 09:00:16;;;;;;;8.07;1.83;;;11.50;99.90;;;;;;5072806;28;20169;-84
2023/02/19 09:02:42;;;;;;;13.20;2.78;;;11.50;99.90;;;;;;5073507;28;20191;-85
2023/02/19 09:05:09;;;;;;;8.68;1.92;;;11.30;99.90;;;;;;5072517;28;20225;-79
2023/02/19 09:07:35;;;;;;;8.35;2.22;;;11.30;99.90;;;;;;5071656;28;20665;-77
2023/02/19 09:10:00;;;;;;;9.05;2.35;;;11.30;99.90;;;;;;5054324;28;20261;-78
2023/02/19 09:12:26;;;;;;;5.38;1.80;;;11.60;99.90;;;;;;5072930;28;20189;-80
2023/02/19 09:14:51;;;;;;;9.43;2.40;;;11.70;99.90;;;;;;5073258;28;20169;-79
2023/02/19 09:17:17;;;;;;;9.35;2.25;;;11.60;99.90;;;;;;5073440;28;20623;-79
2023/02/19 09:19:43;;;;;;;5.50;2.13;;;11.70;99.90;;;;;;5073314;28;20595;-78
2023/02/19 09:22:08;;;;;;;5.90;2.22;;;11.80;99.90;;;;;;5073185;28;20646;-79
2023/02/19 09:24:34;;;;;;;12.32;2.53;;;11.80;99.90;;;;;;5072148;28;20207;-79
2023/02/19 09:26:59;;;;;;;10.38;2.33;;;11.70;99.90;;;;;;5072989;28;20173;-80
2023/02/19 09:29:27;;;;;;;22.58;2.97;;;11.80;99.90;;;;;;5073307;28;20255;-79
2023/02/19 09:32:00;;;;;;;3.97;2.17;;;11.70;99.90;;;;;;5072904;28;20158;-81
2023/02/19 09:34:27;;;;;;;15.00;2.45;;;11.70;99.90;;;;;;5055416;28;20178;-80
2023/02/19 09:36:53;;;;;;;9.00;2.97;;;11.80;99.90;;;;;;5073063;28;20193;-79
2023/02/19 09:39:19;;;;;;;6.57;1.83;;;11.70;99.90;;;;;;5072952;28;20206;-82
2023/02/19 09:41:56;;;;;;;13.13;2.20;;;11.80;99.90;;;;;;5073010;28;20171;-79
2023/02/19 09:44:34;;;;;;;10.40;2.15;;;12.00;99.90;;;;;;5072651;28;20210;-79
2023/02/19 09:47:02;;;;;;;14.73;2.30;;;12.20;99.90;;;;;;5072712;28;20676;-79
2023/02/19 09:49:40;;;;;;;8.10;2.05;;;12.40;99.90;;;;;;5054999;28;20517;-79
2023/02/19 09:52:23;;;;;;;11.63;2.03;;;12.30;99.90;;;;;;5072397;28;20195;-80
2023/02/19 09:54:49;;;;;;;3.50;2.38;;;12.30;99.90;;;;;;5072523;28;20167;-78
2023/02/19 09:57:19;;;;;;;10.20;2.05;;;12.20;99.90;;;;;;5072357;28;20169;-80
2023/02/19 09:59:55;;;;;;;7.75;2.05;;;12.00;99.90;;;;;;5072494;28;20170;-78
2023/02/19 10:02:23;;;;;;;9.20;2.00;;;12.00;99.90;;;;;;5072551;28;20178;-78
2023/02/19 10:04:51;;;;;;;12.30;3.35;;;12.10;99.90;;;;;;5054330;28;20198;-79
2023/02/19 10:07:33;;;;;;;6.88;2.10;;;12.10;99.90;;;;;;5072479;28;20192;-80
2023/02/19 10:10:13;;;;;;;12.65;2.80;;;12.30;99.90;;;;;;5072367;28;20189;-80
2023/02/19 10:12:46;;;;;;;12.63;3.47;;;12.40;99.90;;;;;;5072180;28;20634;-80
2023/02/19 10:15:19;;;;;;;17.02;3.30;;;12.60;99.90;;;;;;5072571;28;20212;-79
2023/02/19 10:17:44;;;;;;;5.57;1.92;;;12.70;99.90;;;;;;5072398;28;20167;-79
2023/02/19 10:20:16;;;;;;;7.78;2.00;;;12.80;99.90;;;;;;5072195;28;20534;-79
2023/02/19 10:22:42;;;;;;;10.45;2.67;;;12.80;99.90;;;;;;5072362;28;20190;-82
2023/02/19 10:25:13;;;;;;;7.97;2.40;;;12.40;99.90;;;;;;5072001;28;20205;-78
2023/02/19 10:27:39;;;;;;;9.35;1.95;;;12.30;99.90;;;;;;5054475;28;20173;-78
2023/02/19 10:30:06;;;;;;;7.13;2.28;;;12.40;99.90;;;;;;5072383;28;20241;-79
2023/02/19 10:32:31;;;;;;;8.00;2.28;;;12.30;99.90;;;;;;5071859;28;20186;-77
2023/02/19 10:35:14;;;;;;;14.90;2.33;;;12.50;99.90;;;;;;5072370;28;20539;-78
2023/02/19 10:37:46;;;;;;;5.65;1.83;;;12.80;99.90;;;;;;5053572;28;20707;-79
2023/02/19 10:40:32;;;;;;;6.72;2.17;;;12.70;99.90;;;;;;5071509;28;20242;-77
2023/02/19 10:43:04;;;;;;;9.00;2.17;;;12.70;99.90;;;;;;5071398;28;20206;-79
2023/02/19 10:45:46;;;;;;;7.57;2.67;;;12.70;99.90;;;;;;5071475;28;20209;-79
2023/02/19 10:48:41;;;;;;;4.90;1.95;;;12.50;99.90;;;;;;5071490;28;20194;-79
2023/02/19 10:51:10;;;;;;;10.90;2.67;;;12.50;99.90;;;;;;5053761;28;20181;-78
2023/02/19 10:53:43;;;;;;;11.30;3.42;;;12.60;99.90;;;;;;5071617;28;20193;-79
2023/02/19 10:56:32;;;;;;;13.27;3.05;;;12.70;99.90;;;;;;5072172;28;20635;-83
2023/02/19 10:59:14;;;;;;;5.13;2.58;;;12.50;99.90;;;;;;5071662;28;20162;-79
2023/02/19 11:02:02;;;;;;;10.32;3.42;;;12.50;99.90;;;;;;5071801;28;20189;-83
2023/02/19 11:04:32;;;;;;;7.03;3.10;;;12.60;99.90;;;;;;5071934;28;20219;-79
2023/02/19 11:07:10;;;;;;;8.52;2.30;;;12.60;99.90;;;;;;5071285;28;20232;-81
2023/02/19 11:09:42;;;;;;;11.57;2.85;;;12.60;99.90;;;;;;5071337;28;20295;-79
2023/02/19 11:12:09;;;;;;;12.38;2.67;;;12.60;99.90;;;;;;5058364;28;20214;-79
2023/02/19 11:14:35;;;;;;;8.93;2.25;;;12.60;99.90;;;;;;5056180;28;20178;-78
2023/02/19 11:17:04;;;;;;;6.50;2.28;;;12.60;99.90;;;;;;5059665;28;20272;-87
2023/02/19 11:19:30;;;;;;;8.55;2.15;;;12.50;99.90;;;;;;5048209;28;20232;-83
2023/02/19 11:21:56;;;;;;;4.78;2.38;;;12.60;99.90;;;;;;5038103;28;20170;-79
2023/02/19 11:24:36;;;;;;;19.67;3.22;;;12.50;99.90;;;;;;5062743;28;20206;-80
2023/02/19 11:27:06;;;;;;;7.00;2.85;;;12.50;99.90;;;;;;5046946;28;20169;-81
2023/02/19 11:29:35;;;;;;;10.38;2.78;;;12.50;99.90;;;;;;5065639;28;20636;-80
2023/02/19 11:32:19;;;;;;;9.50;2.22;;;12.50;99.90;;;;;;5041435;28;20554;-84
2023/02/19 11:34:46;;;;;;;5.15;2.00;;;12.60;99.90;;;;;;5050741;28;20539;-82
2023/02/19 11:37:14;;;;;;;7.18;2.72;;;12.60;99.90;;;;;;5066146;28;20178;-79
2023/02/19 11:39:44;;;;;;;9.48;3.08;;;12.70;99.90;;;;;;5056785;28;20181;-79
2023/02/19 11:42:44;;;;;;;13.30;2.60;;;12.70;99.90;;;;;;5074465;28;20228;-78
2023/02/19 11:45:10;;;;;;;7.95;2.63;;;12.60;99.90;;;;;;5066146;28;20218;-81
2023/02/19 11:47:36;;;;;;;11.88;6.80;;;12.70;99.90;;;;;;5053311;28;20171;-84
2023/02/19 11:50:54;;;;;;;8.70;3.95;;;12.50;99.90;;;;;;5066579;28;20175;-83
2023/02/19 11:53:27;;;;;;;5.68;2.00;;;12.50;99.90;;;;;;4973423;28;20225;-78
2023/02/19 11:56:22;;;;;;;10.82;2.45;;;12.40;99.90;;;;;;5047046;28;20262;-82
2023/02/19 11:58:54;;;;;;;16.85;2.30;;;12.40;99.90;;;;;;5053773;28;20281;-82
2023/02/19 12:01:52;;;;;;;3.42;1.77;;;12.40;99.90;;;;;;5049335;28;20265;-82
2023/02/19 12:04:30;;;;;;;6.78;2.58;;;12.50;99.90;;;;;;5037193;28;20215;-82
2023/02/19 12:07:16;;;;;;;5.38;2.70;;;12.70;99.90;;;;;;5073021;28;20650;-81
2023/02/19 12:10:19;;;;;;;3.17;2.17;;;12.90;99.90;;;;;;5036972;28;20183;-80
2023/02/19 12:12:51;;;;;;;8.48;2.15;;;13.00;99.90;;;;;;5056850;28;20198;-80
2023/02/19 12:15:55;;;;;;;6.82;2.50;;;13.00;99.90;;;;;;5051499;28;20547;-80
2023/02/19 12:18:23;;;;;;;8.02;4.20;;;12.80;99.90;;;;;;5067233;28;20236;-82
2023/02/19 12:20:49;;;;;;;8.02;4.65;;;12.70;99.90;;;;;;5054169;28;20557;-81
2023/02/19 12:23:42;;;;;;;11.98;2.88;;;12.50;99.90;;;;;;5071199;28;20693;-80
2023/02/19 12:26:30;;;;;;;6.47;2.33;;;12.30;99.90;;;;;;5053824;28;20293;-82
2023/02/19 12:29:10;;;;;;;4.88;1.90;;;12.30;99.90;;;;;;5058289;28;20195;-84
2023/02/19 12:32:00;;;;;;;8.65;2.40;;;12.10;99.90;;;;;;5064124;28;20185;-80
2023/02/19 12:35:01;;;;;;;8.18;2.45;;;12.10;99.90;;;;;;5055192;28;20704;-79
2023/02/19 12:37:48;;;;;;;4.57;2.50;;;12.20;99.90;;;;;;5016487;28;20193;-84
2023/02/19 12:40:43;;;;;;;7.05;3.60;;;12.10;99.90;;;;;;5054278;28;20175;-81
2023/02/19 12:43:20;;;;;;;4.53;1.90;;;12.00;99.90;;;;;;5034055;28;20709;-86
2023/02/19 12:45:59;;;;;;;6.28;2.22;;;12.30;99.90;;;;;;5056220;28;20210;-84
2023/02/19 12:48:45;;;;;;;9.70;2.72;;;12.30;99.90;;;;;;5072802;28;20450;-80
2023/02/19 12:51:17;;;;;;;9.50;3.80;;;12.40;99.90;;;;;;5056699;28;20651;-80
2023/02/19 12:53:55;;;;;;;16.38;5.07;;;12.40;99.90;;;;;;5073576;28;20210;-83
2023/02/19 12:56:50;;;;;;;3.70;2.17;;;12.50;99.90;;;;;;5046397;28;20221;-80
2023/02/19 12:59:25;;;;;;;26.02;12.55;;;12.30;99.90;;;;;;5065632;28;20554;-85
2023/02/19 13:02:16;;;;;;;6.90;2.88;;;12.40;99.90;;;;;;5052917;28;20227;-80
2023/02/19 13:04:54;;;;;;;3.83;2.05;;;12.50;99.90;;;;;;5053879;28;20214;-79
2023/02/19 13:07:31;;;;;;;10.10;2.28;;;12.40;99.90;;;;;;5053641;28;20178;-81
2023/02/19 13:10:20;;;;;;;6.45;2.20;;;12.20;99.90;;;;;;5065126;28;20167;-85
2023/02/19 13:12:48;;;;;;;3.22;1.63;;;12.20;99.90;;;;;;5058374;28;20206;-88
2023/02/19 13:15:40;;;;;;;3.65;1.83;;;12.00;99.90;;;;;;5073045;28;20169;-80
2023/02/19 13:18:17;;;;;;;4.97;2.60;;;11.90;99.90;;;;;;5038896;28;20559;-84
2023/02/19 13:20:45;;;;;;;11.48;2.38;;;11.80;99.90;;;;;;5053178;28;20167;-83
2023/02/19 13:26:37;;;;;;;4.15;1.65;;;11.70;99.90;;;;;;5055051;28;20244;-89
2023/02/19 13:29:14;;;;;;;6.85;1.65;;;11.60;99.90;;;;;;5059677;28;20185;-83
2023/02/19 13:32:18;;;;;;;7.20;1.77;;;11.50;99.90;;;;;;5055806;28;20183;-84
2023/02/19 13:34:53;;;;;;;7.68;2.40;;;11.40;99.90;;;;;;5043408;28;20196;-87
2023/02/19 13:37:20;;;;;;;4.97;1.95;;;11.40;99.90;;;;;;5071487;28;20165;-79